PDT,Max TemperatureF,Mean TemperatureF,Min TemperatureF,Max Dew PointF,MeanDew PointF,Min DewpointF,Max Humidity, Mean Humidity, Min Humidity, Max Sea Level PressureIn, Mean Sea Level PressureIn, Min Sea Level PressureIn, Max VisibilityMiles, Mean VisibilityMiles, Min VisibilityMiles, Max Wind SpeedMPH, Mean Wind SpeedMPH, Max Gust SpeedMPH,PrecipitationIn, CloudCover, Events, WindDirDegrees
2012-3-1,47,38,29,39,34,28,100,83,65,30.38,30.11,29.82,10,7,0,15,5,22,0.20,6,Fog-Rain-Snow,179
2012-3-2,47,43,38,45,41,36,100,93,86,30.43,30.41,30.37,10,7,2,21,10,29,0.18,8,Rain,183
2012-3-3,50,48,45,48,46,45,100,97,93,30.46,30.42,30.39,10,6,0,17,8,26,0.16,8,Fog-Rain,222
2012-3-4,50,47,44,45,43,41,100,87,74,30.38,30.25,30.04,10,10,7,12,4,15,0.00,8,,204
2012-3-5,47,41,35,45,39,26,96,75,53,30.01,29.90,29.80,10,7,1,25,14,39,0.66,7,Rain,251
2012-3-6,45,38,30,29,26,21,85,63,40,30.36,30.18,30.01,10,10,6,26,10,33,0.01,2,Rain-Snow-Thunderstorm,312
2012-3-7,48,37,26,36,31,25,92,73,53,30.47,30.40,30.30,10,10,10,14,4,17,0.00,0,,360
2012-3-8,65,49,32,44,37,29,92,62,31,30.29,30.22,30.15,10,10,10,30,10,40,0.00,2,,162
2012-3-9,50,48,45,44,42,41,86,83,80,30.27,30.16,29.99,10,9,4,23,12,37,0.06,8,Rain,200
2012-3-10,50,47,43,45,42,36,100,81,61,29.97,29.85,29.65,10,6,1,22,10,35,0.34,8,Rain,205
2012-3-11,45,42,38,41,37,34,93,79,65,29.79,29.69,29.61,10,8,2,25,12,36,0.34,7,Rain-Thunderstorm,193
2012-3-12,45,39,33,43,38,33,100,90,79,29.61,29.40,29.32,10,4,1,29,12,51,2.39,8,Rain-Snow,190
2012-3-13,45,40,34,40,35,32,100,84,67,29.85,29.61,29.42,10,9,2,18,9,29,0.29,6,Rain-Snow-Thunderstorm,184
2012-3-14,50,43,36,47,42,32,93,88,82,29.82,29.71,29.66,10,7,2,30,13,44,1.01,8,Rain,166
2012-3-15,52,48,44,50,46,41,93,85,77,29.68,29.61,29.48,10,7,2,38,19,60,0.87,8,Rain,201
2012-3-16,47,44,40,43,40,37,92,84,76,29.72,29.59,29.37,10,8,2,24,9,32,0.57,7,Rain-Thunderstorm,195
2012-3-17,48,43,38,41,38,35,100,85,70,29.67,29.56,29.37,10,9,5,20,7,31,0.29,6,Rain,291
2012-3-18,43,38,32,37,34,32,96,85,73,29.87,29.72,29.64,10,9,3,21,6,24,0.32,7,Rain-Snow,265
2012-3-19,45,38,30,40,35,30,93,83,73,29.87,29.82,29.64,10,9,4,28,8,43,0.37,7,Rain,127
2012-3-20,47,43,39,45,39,35,93,82,71,30.00,29.80,29.60,10,7,2,30,12,43,0.49,8,Rain,225
2012-3-21,46,41,36,39,36,32,100,79,58,30.01,29.93,29.83,10,10,6,18,5,33,0.07,6,Rain,87
2012-3-22,46,39,32,39,36,33,100,83,65,30.01,29.96,29.86,10,9,4,16,6,22,0.11,6,Rain,145
2012-3-23,54,43,31,40,34,32,100,75,50,29.99,29.96,29.93,10,9,4,18,7,22,0.00,0,,76
2012-3-24,60,51,41,44,38,31,93,72,51,29.93,29.89,29.84,10,10,10,28,10,37,0.00,4,,101
2012-3-25,53,46,39,45,42,37,96,78,59,29.89,29.79,29.73,10,9,5,16,5,20,0.02,7,Rain,195
2012-3-26,54,48,42,45,39,32,89,69,48,29.83,29.77,29.65,10,10,8,18,8,26,T,7,Rain,157
2012-3-27,54,50,46,49,44,42,93,90,86,29.65,29.55,29.46,10,9,4,14,6,20,0.32,8,Rain,145
2012-3-28,51,47,43,45,42,39,83,80,76,29.77,29.67,29.55,10,8,4,29,16,40,0.36,7,Rain-Thunderstorm,175
2012-3-29,49,48,47,49,48,43,100,93,86,29.62,29.53,29.43,10,4,1,33,13,52,2.26,8,Rain,216
2012-3-30,48,47,45,48,44,37,100,86,71,29.79,29.62,29.47,10,7,2,25,9,43,0.16,7,Rain,225
2012-3-31,52,47,41,45,41,37,89,76,63,29.62,29.43,29.29,10,8,2,22,11,29,0.84,8,Rain,174